sensor_id;sensor_type;location;lat;lon;timestamp;temperature;humidity
28069;DHT22;15382;47.578;8.086;2022-09-01T00:09:53;15.40;99.90
28069;DHT22;15382;47.578;8.086;2022-09-01T00:19:54;15.20;99.90
28069;DHT22;15382;47.578;8.086;2022-09-01T00:29:55;15.10;99.90
28069;DHT22;15382;47.578;8.086;2022-09-01T00:39:56;15.10;99.90
28069;DHT22;15382;47.578;8.086;2022-09-01T00:49:57;15.10;99.90
28069;DHT22;15382;47.578;8.086;2022-09-01T01:00:04;15.00;99.90
28069;DHT22;15382;47.578;8.086;2022-09-01T01:10:07;14.90;99.90
28069;DHT22;15382;47.578;8.086;2022-09-01T01:20:11;14.90;99.90
28069;DHT22;15382;47.578;8.086;2022-09-01T01:30:33;14.90;99.90
28069;DHT22;15382;47.578;8.086;2022-09-01T01:40:36;14.80;99.90
28069;DHT22;15382;47.578;8.086;2022-09-01T01:50:37;14.80;99.90
28069;DHT22;15382;47.578;8.086;2022-09-01T02:00:39;14.70;99.90
28069;DHT22;15382;47.578;8.086;2022-09-01T06:12:39;14.80;99.90
28069;DHT22;15382;47.578;8.086;2022-09-01T06:22:40;15.10;99.90
28069;DHT22;15382;47.578;8.086;2022-09-01T06:32:42;15.30;99.90
28069;DHT22;15382;47.578;8.086;2022-09-01T06:42:48;15.50;99.90
28069;DHT22;15382;47.578;8.086;2022-09-01T06:52:50;15.60;99.90
28069;DHT22;15382;47.578;8.086;2022-09-01T07:03:03;15.90;99.90
28069;DHT22;15382;47.578;8.086;2022-09-01T07:13:20;16.10;99.90
28069;DHT22;15382;47.578;8.086;2022-09-01T07:23:24;16.30;99.90
28069;DHT22;15382;47.578;8.086;2022-09-01T07:33:27;16.50;99.90
28069;DHT22;15382;47.578;8.086;2022-09-01T07:43:30;16.70;99.90
28069;DHT22;15382;47.578;8.086;2022-09-01T07:53:52;17.00;99.90
28069;DHT22;15382;47.578;8.086;2022-09-01T08:03:58;17.30;99.90
28069;DHT22;15382;47.578;8.086;2022-09-01T08:13:59;17.70;99.90
28069;DHT22;15382;47.578;8.086;2022-09-01T08:24:02;18.20;99.90
28069;DHT22;15382;47.578;8.086;2022-09-01T08:34:06;19.00;99.90
28069;DHT22;15382;47.578;8.086;2022-09-01T08:54:36;19.00;99.90
28069;DHT22;15382;47.578;8.086;2022-09-01T09:25:25;20.10;99.90
28069;DHT22;15382;47.578;8.086;2022-09-01T09:35:38;19.80;99.90
28069;DHT22;15382;47.578;8.086;2022-09-01T09:45:39;20.50;99.90
28069;DHT22;15382;47.578;8.086;2022-09-01T09:55:59;21.90;99.90
28069;DHT22;15382;47.578;8.086;2022-09-01T10:06:02;22.10;99.90
28069;DHT22;15382;47.578;8.086;2022-09-01T10:16:17;23.40;99.90
28069;DHT22;15382;47.578;8.086;2022-09-01T10:26:24;22.70;99.90
28069;DHT22;15382;47.578;8.086;2022-09-01T10:36:27;24.10;99.90
28069;DHT22;15382;47.578;8.086;2022-09-01T10:46:41;24.90;99.90
28069;DHT22;15382;47.578;8.086;2022-09-01T10:56:47;25.20;99.90
28069;DHT22;15382;47.578;8.086;2022-09-01T11:17:15;24.50;99.90
28069;DHT22;15382;47.578;8.086;2022-09-01T11:27:57;24.50;99.90
28069;DHT22;15382;47.578;8.086;2022-09-01T11:38:02;24.90;99.90
28069;DHT22;15382;47.578;8.086;2022-09-01T11:48:08;24.40;99.90
28069;DHT22;15382;47.578;8.086;2022-09-01T11:58:29;23.80;99.90
28069;DHT22;15382;47.578;8.086;2022-09-01T12:08:35;24.50;99.90
28069;DHT22;15382;47.578;8.086;2022-09-01T12:18:44;23.60;99.90
28069;DHT22;15382;47.578;8.086;2022-09-01T12:28:47;25.10;99.90
28069;DHT22;15382;47.578;8.086;2022-09-01T12:38:50;25.70;99.90
28069;DHT22;15382;47.578;8.086;2022-09-01T12:48:51;26.00;99.90
28069;DHT22;15382;47.578;8.086;2022-09-01T12:59:04;25.80;99.90
28069;DHT22;15382;47.578;8.086;2022-09-01T13:09:06;26.50;99.90
28069;DHT22;15382;47.578;8.086;2022-09-01T13:19:07;24.70;99.90
28069;DHT22;15382;47.578;8.086;2022-09-01T13:29:08;25.20;99.90
28069;DHT22;15382;47.578;8.086;2022-09-01T13:39:08;24.10;99.90
28069;DHT22;15382;47.578;8.086;2022-09-01T13:49:09;23.60;99.90
28069;DHT22;15382;47.578;8.086;2022-09-01T13:59:11;25.00;99.90
28069;DHT22;15382;47.578;8.086;2022-09-01T14:09:13;25.30;99.90
28069;DHT22;15382;47.578;8.086;2022-09-01T14:19:15;25.70;99.90
28069;DHT22;15382;47.578;8.086;2022-09-01T14:29:16;25.60;99.90
28069;DHT22;15382;47.578;8.086;2022-09-01T14:39:17;25.80;99.90
28069;DHT22;15382;47.578;8.086;2022-09-01T14:49:17;26.20;99.90
28069;DHT22;15382;47.578;8.086;2022-09-01T14:59:19;26.00;99.90
28069;DHT22;15382;47.578;8.086;2022-09-01T15:09:20;25.20;99.90
28069;DHT22;15382;47.578;8.086;2022-09-01T15:19:21;26.00;99.90
28069;DHT22;15382;47.578;8.086;2022-09-01T15:29:22;25.40;99.90
28069;DHT22;15382;47.578;8.086;2022-09-01T15:39:22;25.20;99.90
28069;DHT22;15382;47.578;8.086;2022-09-01T15:49:23;24.90;99.90
28069;DHT22;15382;47.578;8.086;2022-09-01T15:59:24;25.00;99.90
28069;DHT22;15382;47.578;8.086;2022-09-01T16:09:25;24.20;99.90
28069;DHT22;15382;47.578;8.086;2022-09-01T16:29:38;23.50;99.90
28069;DHT22;15382;47.578;8.086;2022-09-01T16:50:02;22.50;99.90
28069;DHT22;15382;47.578;8.086;2022-09-01T17:00:10;22.00;99.90
28069;DHT22;15382;47.578;8.086;2022-09-01T17:10:29;21.80;99.90
28069;DHT22;15382;47.578;8.086;2022-09-01T17:20:32;22.00;99.90
28069;DHT22;15382;47.578;8.086;2022-09-01T17:30:49;21.70;99.90
28069;DHT22;15382;47.578;8.086;2022-09-01T18:12:42;20.30;99.90
28069;DHT22;15382;47.578;8.086;2022-09-01T18:23:07;20.00;99.90
28069;DHT22;15382;47.578;8.086;2022-09-01T18:43:44;19.40;99.90
28069;DHT22;15382;47.578;8.086;2022-09-01T18:53:50;19.00;99.90
28069;DHT22;15382;47.578;8.086;2022-09-01T19:03:58;18.80;99.90
28069;DHT22;15382;47.578;8.086;2022-09-01T19:34:35;18.00;99.90
28069;DHT22;15382;47.578;8.086;2022-09-01T19:54:49;17.60;99.90
28069;DHT22;15382;47.578;8.086;2022-09-01T20:05:18;17.30;99.90
28069;DHT22;15382;47.578;8.086;2022-09-01T20:25:29;17.10;99.90
28069;DHT22;15382;47.578;8.086;2022-09-01T20:35:41;17.00;99.90
28069;DHT22;15382;47.578;8.086;2022-09-01T20:45:44;16.90;99.90
28069;DHT22;15382;47.578;8.086;2022-09-01T21:05:59;16.60;99.90
28069;DHT22;15382;47.578;8.086;2022-09-01T21:26:22;16.30;99.90
28069;DHT22;15382;47.578;8.086;2022-09-01T21:36:23;16.30;99.90
28069;DHT22;15382;47.578;8.086;2022-09-01T21:46:24;16.30;99.90
28069;DHT22;15382;47.578;8.086;2022-09-01T21:56:25;16.10;99.90
28069;DHT22;15382;47.578;8.086;2022-09-01T22:06:26;15.90;99.90
28069;DHT22;15382;47.578;8.086;2022-09-01T22:16:27;16.00;99.90
28069;DHT22;15382;47.578;8.086;2022-09-01T22:26:30;15.80;99.90
28069;DHT22;15382;47.578;8.086;2022-09-01T22:36:42;15.80;99.90
28069;DHT22;15382;47.578;8.086;2022-09-01T22:46:43;15.70;99.90
28069;DHT22;15382;47.578;8.086;2022-09-01T22:56:44;15.60;99.90
28069;DHT22;15382;47.578;8.086;2022-09-01T23:06:47;15.70;99.90
28069;DHT22;15382;47.578;8.086;2022-09-01T23:16:49;15.50;99.90
28069;DHT22;15382;47.578;8.086;2022-09-01T23:26:51;15.30;99.90
28069;DHT22;15382;47.578;8.086;2022-09-01T23:36:52;15.50;99.90
28069;DHT22;15382;47.578;8.086;2022-09-01T23:46:52;15.40;99.90
28069;DHT22;15382;47.578;8.086;2022-09-01T23:56:53;15.20;99.90
